KMEZ

Mena Intermountain Municipal Airport

Mena, Arkansas, USA
METAR KMEZ 170355Z AUTO 00000KT 10SM CLR 10/09 A3030 RMK AO2
Observed Flight Rules
Oct-17 @ 03:55 UTC (an hour ago) Visual Flight Rules
Visibility Clouds
10 miles
  • Clear skies
Temperatures Readings
Current 10°C / 50°F
Dewpoint 9°C / 48°F
Humidity 94%
Altimeter 30.3" Hg
Pressure 1026 hPa
Elevation 329
METAR KMEZ 170355Z AUTO 00000KT 10SM CLR 10/09 A3030 RMK AO2
Observed Flight Rules
Oct-17 @ 03:55 UTC
(an hour ago)
VFR
Clouds
  • Clear skies
Temperature Dewpoint
10°C / 50°F 9°C / 48°F
Humidity Altimeter Pressure
94% 30.3" Hg 1026 hPa